createdAt,value
2019-03-16T00:02:17.339Z,5.14
2019-03-16T00:04:48.189Z,5.16
2019-03-16T00:07:32.224Z,5.12
2019-03-16T00:09:51.555Z,5.09
2019-03-16T00:12:28.837Z,5.06
2019-03-16T00:14:59.947Z,5.09
2019-03-16T00:17:30.916Z,5.09
2019-03-16T00:20:04.311Z,5.09
2019-03-16T00:22:35.856Z,5.09
2019-03-16T00:25:08.916Z,5.08
2019-03-16T00:27:39.757Z,5.11
2019-03-16T00:30:11.553Z,5.11
2019-03-16T00:32:43.690Z,5.12
2019-03-16T00:35:14.457Z,5.08
2019-03-16T00:37:45.894Z,5.11
2019-03-16T00:40:18.440Z,5.09
2019-03-16T00:42:50.135Z,5.09
2019-03-16T00:45:21.444Z,5.02
2019-03-16T00:47:59.316Z,5.00
2019-03-16T00:50:32.955Z,4.97
2019-03-16T00:53:04.611Z,4.95
2019-03-16T00:55:35.454Z,4.96
2019-03-16T00:58:06.351Z,4.94
2019-03-16T01:00:37.425Z,4.94
2019-03-16T01:03:08.273Z,4.96
2019-03-16T01:05:39.201Z,4.96
2019-03-16T01:08:10.506Z,5.00
2019-03-16T01:10:41.399Z,4.97
2019-03-16T01:13:12.243Z,4.92
2019-03-16T01:15:43.111Z,4.90
2019-03-16T01:18:14.386Z,4.91
2019-03-16T01:20:45.187Z,4.85
2019-03-16T01:23:17.826Z,4.85
2019-03-16T01:25:49.262Z,4.87
2019-03-16T01:28:20.058Z,4.83
2019-03-16T01:30:51.997Z,4.81
2019-03-16T01:33:24.299Z,4.82
2019-03-16T01:35:55.177Z,4.82
2019-03-16T01:38:26.711Z,4.80
2019-03-16T01:40:57.531Z,4.77
2019-03-16T01:43:32.163Z,4.77
2019-03-16T01:46:03.406Z,4.77
2019-03-16T01:48:34.308Z,4.76
2019-03-16T01:51:05.248Z,4.74
2019-03-16T01:53:36.457Z,4.69
2019-03-16T01:56:07.457Z,4.66
2019-03-16T01:58:38.301Z,4.68
2019-03-16T02:01:10.798Z,4.64
2019-03-16T02:03:47.123Z,4.60
2019-03-16T02:06:18.009Z,4.58
2019-03-16T02:08:49.063Z,4.59
2019-03-16T02:11:20.503Z,4.59
2019-03-16T02:13:52.729Z,4.62
2019-03-16T02:16:23.966Z,4.60
2019-03-16T02:18:54.766Z,4.57
2019-03-16T02:21:25.793Z,4.56
2019-03-16T02:23:56.735Z,4.57
2019-03-16T02:26:27.960Z,4.55
2019-03-16T02:28:59.119Z,4.57
2019-03-16T02:31:29.912Z,4.58
2019-03-16T02:34:00.808Z,4.59
2019-03-16T02:36:31.644Z,4.62
2019-03-16T02:39:02.528Z,4.63
2019-03-16T02:41:34.822Z,4.63
2019-03-16T02:44:05.625Z,4.60
2019-03-16T02:46:43.128Z,4.58
2019-03-16T02:49:13.884Z,4.57
2019-03-16T02:51:45.812Z,4.56
2019-03-16T02:54:16.673Z,4.58
2019-03-16T02:56:48.116Z,4.59
2019-03-16T02:59:18.878Z,4.59
2019-03-16T03:01:49.686Z,4.62
2019-03-16T03:04:20.549Z,4.58
2019-03-16T03:06:51.353Z,4.60
2019-03-16T03:09:25.451Z,4.60
2019-03-16T03:11:59.003Z,4.58
2019-03-16T03:14:29.863Z,4.57
2019-03-16T03:17:00.633Z,4.58
2019-03-16T03:19:32.457Z,4.55
2019-03-16T03:22:03.222Z,4.54
2019-03-16T03:24:34.437Z,4.52
2019-03-16T03:27:05.218Z,4.51
2019-03-16T03:29:36.041Z,4.50
2019-03-16T03:32:08.529Z,4.48
2019-03-16T03:34:39.334Z,4.48
2019-03-16T03:37:10.795Z,4.47
2019-03-16T03:39:43.584Z,4.45
2019-03-16T03:42:17.036Z,4.42
2019-03-16T03:44:47.814Z,4.42
2019-03-16T03:47:19.059Z,4.41
2019-03-16T03:49:49.829Z,4.41
2019-03-16T03:52:20.673Z,4.39
2019-03-16T03:54:51.432Z,4.42
2019-03-16T03:57:27.907Z,4.45
2019-03-16T03:59:58.815Z,4.40
2019-03-16T04:02:29.636Z,4.36
2019-03-16T04:05:00.506Z,4.33
2019-03-16T04:07:31.330Z,4.30
2019-03-16T04:10:02.164Z,4.28
2019-03-16T04:12:32.902Z,4.28
2019-03-16T04:15:03.751Z,4.26
2019-03-16T04:17:34.646Z,4.27
2019-03-16T04:20:06.648Z,4.28
2019-03-16T04:22:40.420Z,4.26
2019-03-16T04:25:11.254Z,4.26
2019-03-16T04:27:44.555Z,4.25
2019-03-16T04:30:15.383Z,4.22
2019-03-16T04:32:46.162Z,4.21
2019-03-16T04:35:17.592Z,4.21
2019-03-16T04:37:54.171Z,4.22
2019-03-16T04:40:25.244Z,4.24
2019-03-16T04:42:56.062Z,4.25
2019-03-16T04:45:26.909Z,4.24
2019-03-16T04:47:57.874Z,4.24
2019-03-16T04:50:29.029Z,4.23
2019-03-16T04:53:00.027Z,4.24
2019-03-16T04:55:30.853Z,4.21
2019-03-16T04:58:01.711Z,4.23
2019-03-16T05:00:32.574Z,4.22
2019-03-16T05:03:03.608Z,4.23
2019-03-16T05:05:34.473Z,4.26
2019-03-16T05:08:05.814Z,4.28
2019-03-16T05:10:46.983Z,4.27
2019-03-16T05:13:18.790Z,4.32
2019-03-16T05:15:50.918Z,4.31
2019-03-16T05:18:22.256Z,4.27
2019-03-16T05:20:54.240Z,4.23
2019-03-16T05:23:25.148Z,4.26
2019-03-16T05:25:57.861Z,4.22
2019-03-16T05:28:28.692Z,4.21
2019-03-16T05:31:02.562Z,4.17
2019-03-16T05:33:33.328Z,4.19
2019-03-16T05:36:04.162Z,4.22
2019-03-16T05:38:35.353Z,4.22
2019-03-16T05:41:06.173Z,4.22
2019-03-16T05:43:39.365Z,4.21
2019-03-16T05:46:10.509Z,4.20
2019-03-16T05:48:43.166Z,4.18
2019-03-16T05:51:20.512Z,4.16
2019-03-16T05:53:51.617Z,4.14
2019-03-16T05:56:23.961Z,4.10
2019-03-16T05:58:54.727Z,4.10
2019-03-16T06:01:26.423Z,4.09
2019-03-16T06:03:57.262Z,4.10
2019-03-16T06:06:30.791Z,4.10
2019-03-16T06:09:04.974Z,4.07
2019-03-16T06:11:40.000Z,4.02
2019-03-16T06:14:10.826Z,4.03
2019-03-16T06:16:42.043Z,4.03
2019-03-16T06:19:12.797Z,4.07
2019-03-16T06:21:43.993Z,4.06
2019-03-16T06:24:17.552Z,4.08
2019-03-16T06:26:57.157Z,4.07
2019-03-16T06:29:29.578Z,4.09
2019-03-16T06:32:02.261Z,4.11
2019-03-16T06:34:35.516Z,4.13
2019-03-16T06:37:06.502Z,4.12
2019-03-16T06:39:39.935Z,4.13
2019-03-16T06:42:11.447Z,4.11
2019-03-16T06:44:42.350Z,4.10
2019-03-16T06:47:13.583Z,4.10
2019-03-16T06:50:16.642Z,4.08
2019-03-16T06:52:47.926Z,4.10
2019-03-16T06:55:22.132Z,4.08
2019-03-16T06:57:53.126Z,4.09
2019-03-16T07:00:24.018Z,4.12
2019-03-16T07:02:55.050Z,4.14
2019-03-16T07:05:37.483Z,4.12
2019-03-16T07:07:58.544Z,4.12
2019-03-16T07:10:29.730Z,4.11
2019-03-16T07:13:00.586Z,4.15
2019-03-16T07:15:31.489Z,4.17
2019-03-16T07:18:02.959Z,4.18
2019-03-16T07:20:35.696Z,4.16
2019-03-16T07:23:06.617Z,4.17
2019-03-16T07:25:37.737Z,4.18
2019-03-16T07:28:09.934Z,4.16
2019-03-16T07:30:40.689Z,4.19
2019-03-16T07:33:11.529Z,4.18
2019-03-16T07:35:43.094Z,4.19
2019-03-16T07:38:15.883Z,4.23
2019-03-16T07:40:46.976Z,4.26
2019-03-16T07:43:18.254Z,4.30
2019-03-16T07:45:55.328Z,4.32
2019-03-16T07:48:28.984Z,4.34
2019-03-16T07:51:01.731Z,4.38
2019-03-16T07:53:34.163Z,4.44
2019-03-16T07:56:10.487Z,4.48
2019-03-16T07:58:39.221Z,4.51
2019-03-16T08:01:10.076Z,4.54
2019-03-16T08:03:41.130Z,4.56
2019-03-16T08:06:12.452Z,4.58
2019-03-16T08:08:47.719Z,4.59
2019-03-16T08:11:18.469Z,4.59
2019-03-16T08:13:49.780Z,4.61
2019-03-16T08:16:21.719Z,4.63
2019-03-16T08:18:55.546Z,4.62
2019-03-16T08:21:27.006Z,4.63
2019-03-16T08:23:58.043Z,4.66
2019-03-16T08:26:29.979Z,4.73
2019-03-16T08:29:03.563Z,4.77
2019-03-16T08:31:35.368Z,4.73
2019-03-16T08:34:09.156Z,4.73
2019-03-16T08:36:39.924Z,4.75
2019-03-16T08:39:16.348Z,4.80
2019-03-16T08:41:47.170Z,4.82
2019-03-16T08:44:18.045Z,4.80
2019-03-16T08:46:52.026Z,4.81
2019-03-16T08:49:34.077Z,4.75
2019-03-16T08:52:08.181Z,4.80
2019-03-16T08:54:57.533Z,4.79
2019-03-16T08:57:28.336Z,4.87
2019-03-16T09:00:00.918Z,4.89
2019-03-16T09:02:31.787Z,4.87
2019-03-16T09:05:14.044Z,4.87
2019-03-16T09:07:45.038Z,4.87
2019-03-16T09:10:18.686Z,4.89
2019-03-16T09:12:55.512Z,4.93
2019-03-16T09:15:27.137Z,4.96
2019-03-16T09:18:01.094Z,4.99
2019-03-16T09:20:35.230Z,5.06
2019-03-16T09:23:06.517Z,5.09
2019-03-16T09:25:47.827Z,5.13
2019-03-16T09:28:21.219Z,5.14
2019-03-16T09:30:52.444Z,5.18
2019-03-16T09:33:23.691Z,5.10
2019-03-16T09:35:55.024Z,5.10
2019-03-16T09:38:26.153Z,5.15
2019-03-16T09:41:11.581Z,5.17
2019-03-16T09:43:41.088Z,5.22
2019-03-16T09:46:17.745Z,5.20
2019-03-16T09:48:48.960Z,5.20
2019-03-16T09:51:21.615Z,5.23
2019-03-16T09:53:54.051Z,5.23
2019-03-16T09:56:25.237Z,5.27
2019-03-16T09:58:56.335Z,5.25
2019-03-16T10:01:53.782Z,5.19
2019-03-16T10:04:33.053Z,5.16
2019-03-16T10:07:07.823Z,5.14
2019-03-16T10:09:51.435Z,5.14
2019-03-16T10:12:24.991Z,5.20
2019-03-16T10:15:03.765Z,5.28
2019-03-16T10:17:34.897Z,5.32
2019-03-16T10:20:11.364Z,5.38
2019-03-16T10:22:42.470Z,5.46
2019-03-16T10:25:16.039Z,5.55
2019-03-16T10:27:51.370Z,5.64
2019-03-16T10:30:22.644Z,5.73
2019-03-16T10:32:55.607Z,5.77
2019-03-16T10:35:28.237Z,5.84
2019-03-16T10:38:01.511Z,5.83
2019-03-16T10:40:32.316Z,5.77
2019-03-16T10:43:03.448Z,5.78
2019-03-16T10:45:36.564Z,5.81
2019-03-16T10:48:10.696Z,5.81
2019-03-16T10:50:47.894Z,5.89
2019-03-16T10:53:19.421Z,6.02
2019-03-16T10:55:56.223Z,6.09
2019-03-16T10:58:40.372Z,6.16
2019-03-16T11:01:20.949Z,6.22
2019-03-16T11:03:57.642Z,6.25
2019-03-16T11:06:28.592Z,6.28
2019-03-16T11:09:00.208Z,6.34
2019-03-16T11:11:40.802Z,6.48
2019-03-16T11:14:14.616Z,6.45
2019-03-16T11:16:47.070Z,6.50
2019-03-16T11:19:23.419Z,6.54
2019-03-16T11:22:06.546Z,6.65
2019-03-16T11:24:42.742Z,6.69
2019-03-16T11:27:17.159Z,6.74
2019-03-16T11:29:49.337Z,6.88
2019-03-16T11:32:23.693Z,6.96
2019-03-16T11:35:02.607Z,7.06
2019-03-16T11:37:37.894Z,7.08
2019-03-16T11:40:15.811Z,7.16
2019-03-16T11:42:47.881Z,7.28
2019-03-16T11:45:22.213Z,7.37
2019-03-16T11:47:56.199Z,7.47
2019-03-16T11:50:34.140Z,7.66
2019-03-16T11:53:06.528Z,7.77
2019-03-16T11:55:38.008Z,7.92
2019-03-16T11:58:08.942Z,8.02
2019-03-16T12:00:40.990Z,8.20
2019-03-16T12:03:12.061Z,8.36
2019-03-16T12:05:48.056Z,8.39
2019-03-16T12:08:20.359Z,8.44
2019-03-16T12:10:51.186Z,8.56
2019-03-16T12:14:41.035Z,8.60
2019-03-16T12:17:15.170Z,8.65
2019-03-16T12:19:46.021Z,8.78
2019-03-16T12:22:18.470Z,8.78
2019-03-16T12:24:50.008Z,8.80
2019-03-16T12:27:22.041Z,8.77
2019-03-16T12:29:52.850Z,8.69
2019-03-16T12:32:25.165Z,8.60
2019-03-16T12:34:58.239Z,8.51
2019-03-16T12:37:32.322Z,8.42
2019-03-16T12:40:15.959Z,8.36
2019-03-16T12:42:58.446Z,8.31
2019-03-16T12:45:29.557Z,8.32
2019-03-16T12:48:00.551Z,8.32
2019-03-16T12:50:38.613Z,8.32
2019-03-16T12:53:09.645Z,8.35
2019-03-16T12:55:54.813Z,8.39
2019-03-16T12:58:28.580Z,8.42
2019-03-16T13:01:06.177Z,8.42
2019-03-16T13:03:50.244Z,8.44
2019-03-16T13:06:26.092Z,8.43
2019-03-16T13:09:01.760Z,8.46
2019-03-16T13:11:36.997Z,8.46
2019-03-16T13:14:18.688Z,8.41
2019-03-16T13:16:54.627Z,8.42
2019-03-16T13:19:26.321Z,8.40
2019-03-16T13:22:00.119Z,8.38
2019-03-16T13:24:35.533Z,8.37
2019-03-16T13:27:08.164Z,8.36
2019-03-16T13:29:45.162Z,8.31
2019-03-16T13:32:16.498Z,8.23
2019-03-16T13:34:47.374Z,8.17
2019-03-16T13:37:18.571Z,8.17
2019-03-16T13:39:52.374Z,8.15
2019-03-16T13:42:29.143Z,8.14
2019-03-16T13:45:06.429Z,8.10
2019-03-16T13:47:41.577Z,8.10
2019-03-16T13:50:13.556Z,8.05
2019-03-16T13:52:45.122Z,8.02
2019-03-16T13:55:21.700Z,7.98
2019-03-16T13:57:59.940Z,7.96
2019-03-16T14:00:40.515Z,7.93
2019-03-16T14:03:14.676Z,7.90
2019-03-16T14:05:47.552Z,7.88
2019-03-16T14:08:30.967Z,7.85
2019-03-16T14:11:02.654Z,7.84
2019-03-16T14:13:43.005Z,7.83
2019-03-16T14:16:16.507Z,7.85
2019-03-16T14:18:48.033Z,7.88
2019-03-16T14:21:19.538Z,7.91
2019-03-16T14:23:51.682Z,7.93
2019-03-16T14:26:32.214Z,7.98
2019-03-16T14:29:03.005Z,8.09
2019-03-16T14:31:35.659Z,8.15
2019-03-16T14:34:12.201Z,8.16
2019-03-16T14:36:46.834Z,8.13
2019-03-16T14:39:20.681Z,8.10
2019-03-16T14:41:52.131Z,8.11
2019-03-16T14:44:25.651Z,8.10
2019-03-16T14:46:56.473Z,8.04
2019-03-16T14:49:27.509Z,8.00
2019-03-16T14:51:59.005Z,7.97
2019-03-16T14:54:30.596Z,7.97
2019-03-16T14:57:05.570Z,7.96
2019-03-16T14:59:37.031Z,7.96
2019-03-16T15:02:10.304Z,7.98
2019-03-16T15:04:43.784Z,8.02
2019-03-16T15:07:17.711Z,8.09
2019-03-16T15:09:51.432Z,8.17
2019-03-16T15:12:22.640Z,8.25
2019-03-16T15:14:53.979Z,8.29
2019-03-16T15:17:27.932Z,8.29
2019-03-16T15:19:59.235Z,8.25
2019-03-16T15:22:30.207Z,8.22
2019-03-16T15:25:01.313Z,8.17
2019-03-16T15:27:32.134Z,8.12
2019-03-16T15:30:06.255Z,8.09
2019-03-16T15:32:37.160Z,8.03
2019-03-16T15:35:09.425Z,7.99
2019-03-16T15:37:40.625Z,8.00
2019-03-16T15:40:13.151Z,8.00
2019-03-16T15:42:44.587Z,8.00
2019-03-16T15:45:21.904Z,7.99
2019-03-16T15:47:52.757Z,7.98
2019-03-16T15:50:23.641Z,7.94
2019-03-16T15:52:58.028Z,7.90
2019-03-16T15:55:28.866Z,7.86
2019-03-16T15:58:08.660Z,7.82
2019-03-16T16:00:40.039Z,7.80
2019-03-16T16:03:11.380Z,7.80
2019-03-16T16:05:42.604Z,7.79
2019-03-16T16:08:13.987Z,7.78
2019-03-16T16:10:45.225Z,7.77
2019-03-16T16:13:18.099Z,7.76
2019-03-16T16:16:14.414Z,7.79
2019-03-16T16:19:21.774Z,7.79
2019-03-16T16:22:01.600Z,7.80
2019-03-16T16:24:35.409Z,7.78
2019-03-16T16:27:08.122Z,7.76
2019-03-16T16:29:41.455Z,7.75
2019-03-16T16:32:22.989Z,7.74
2019-03-16T16:34:54.118Z,7.71
2019-03-16T16:37:27.544Z,7.66
2019-03-16T16:40:03.341Z,7.68
2019-03-16T16:42:35.812Z,7.72
2019-03-16T16:45:07.780Z,7.72
2019-03-16T16:47:38.968Z,7.68
2019-03-16T16:50:12.520Z,7.69
2019-03-16T16:52:47.937Z,7.70
2019-03-16T16:55:21.282Z,7.75
2019-03-16T17:04:29.419Z,7.76
2019-03-16T17:07:03.833Z,7.75
2019-03-16T17:09:36.503Z,7.75
2019-03-16T17:12:12.336Z,7.74
2019-03-16T17:14:43.714Z,7.74
2019-03-16T17:17:20.446Z,7.72
2019-03-16T17:20:02.214Z,7.73
2019-03-16T17:22:37.486Z,7.74
2019-03-16T17:25:09.449Z,7.71
2019-03-16T17:27:44.081Z,7.67
2019-03-16T17:30:19.201Z,7.68
2019-03-16T17:32:50.170Z,7.64
2019-03-16T17:35:25.881Z,7.64
2019-03-16T17:37:57.157Z,7.63
2019-03-16T17:40:28.120Z,7.68
2019-03-16T17:43:01.629Z,7.69
2019-03-16T17:45:32.565Z,7.70
2019-03-16T17:48:03.702Z,7.70
2019-03-16T17:50:35.173Z,7.71
2019-03-16T17:53:10.362Z,7.71
2019-03-16T17:55:45.310Z,7.70
2019-03-16T17:58:16.723Z,7.72
2019-03-16T18:00:47.696Z,7.72
2019-03-16T18:03:18.866Z,7.73
2019-03-16T18:06:00.597Z,7.72
2019-03-16T18:08:42.004Z,7.70
2019-03-16T18:11:16.923Z,7.71
2019-03-16T18:13:48.295Z,7.70
2019-03-16T18:16:22.253Z,7.66
2019-03-16T18:18:53.069Z,7.65
2019-03-16T18:21:23.837Z,7.61
2019-03-16T18:23:54.650Z,7.60
2019-03-16T18:26:26.633Z,7.61
2019-03-16T18:29:00.347Z,7.60
2019-03-16T18:31:31.331Z,7.58
2019-03-16T18:34:07.100Z,7.56
2019-03-16T18:36:41.100Z,7.55
2019-03-16T18:39:12.010Z,7.54
2019-03-16T18:41:46.985Z,7.55
2019-03-16T18:44:22.145Z,7.55
2019-03-16T18:46:53.159Z,7.55
2019-03-16T18:49:33.431Z,7.55
2019-03-16T18:52:04.257Z,7.55
2019-03-16T18:54:38.643Z,7.51
2019-03-16T18:57:14.397Z,7.48
2019-03-16T18:59:54.250Z,7.47
2019-03-16T19:02:22.952Z,7.47
2019-03-16T19:04:54.234Z,7.42
2019-03-16T19:07:29.091Z,7.45
2019-03-16T19:10:04.809Z,7.43
2019-03-16T19:12:42.188Z,7.39
2019-03-16T19:15:16.685Z,7.37
2019-03-16T19:17:58.703Z,7.37
2019-03-16T19:20:28.127Z,7.31
2019-03-16T19:23:00.354Z,7.28
2019-03-16T19:25:32.505Z,7.22
2019-03-16T19:28:04.750Z,7.22
2019-03-16T19:30:38.386Z,7.17
2019-03-16T19:33:09.824Z,7.13
2019-03-16T19:35:46.470Z,7.12
2019-03-16T19:38:30.068Z,7.11
2019-03-16T19:41:05.209Z,7.12
2019-03-16T19:43:39.242Z,7.05
2019-03-16T19:46:11.894Z,7.07
2019-03-16T19:48:42.905Z,7.08
2019-03-16T19:51:15.864Z,7.09
2019-03-16T19:53:50.872Z,7.11
2019-03-16T19:56:21.709Z,7.14
2019-03-16T19:59:01.091Z,7.14
2019-03-16T20:01:35.039Z,7.09
2019-03-16T20:04:18.661Z,7.14
2019-03-16T20:06:53.723Z,7.15
2019-03-16T20:09:31.639Z,7.17
2019-03-16T20:12:07.293Z,7.17
2019-03-16T20:14:44.692Z,7.19
2019-03-16T20:17:15.548Z,7.19
2019-03-16T20:19:46.895Z,7.14
2019-03-16T20:22:26.079Z,7.14
2019-03-16T20:25:03.527Z,7.14
2019-03-16T20:27:34.706Z,7.12
2019-03-16T20:30:06.393Z,7.09
2019-03-16T20:32:37.389Z,7.10
2019-03-16T20:35:08.240Z,7.16
2019-03-16T20:37:39.058Z,7.16
2019-03-16T20:40:17.108Z,7.14
2019-03-16T20:42:57.185Z,7.07
2019-03-16T20:45:31.486Z,7.04
2019-03-16T20:48:18.340Z,7.00
2019-03-16T20:51:01.488Z,6.96
2019-03-16T20:53:39.021Z,6.95
2019-03-16T20:56:11.376Z,6.94
2019-03-16T20:58:46.077Z,6.88
2019-03-16T21:01:22.674Z,6.80
2019-03-16T21:03:55.423Z,6.71
2019-03-16T21:06:31.249Z,6.72
2019-03-16T21:09:03.680Z,6.77
2019-03-16T21:11:39.061Z,6.75
2019-03-16T21:14:16.327Z,6.67
2019-03-16T21:16:54.279Z,6.70
2019-03-16T21:19:34.102Z,6.65
2019-03-16T21:22:06.480Z,6.64
2019-03-16T21:24:40.714Z,6.67
2019-03-16T21:27:16.958Z,6.70
2019-03-16T21:29:52.409Z,6.66
2019-03-16T21:32:23.199Z,6.60
2019-03-16T21:35:03.799Z,6.54
2019-03-16T21:37:34.918Z,6.54
2019-03-16T21:40:08.769Z,6.69
2019-03-16T21:42:42.455Z,6.66
2019-03-16T21:45:15.027Z,6.66
2019-03-16T21:47:59.991Z,6.68
2019-03-16T21:50:33.199Z,6.71
2019-03-16T21:53:16.313Z,6.72
2019-03-16T21:58:42.899Z,6.69
2019-03-16T22:01:13.719Z,6.67
2019-03-16T22:04:03.689Z,6.63
2019-03-16T22:06:43.080Z,6.75
2019-03-16T22:09:14.165Z,6.80
2019-03-16T22:11:50.970Z,6.88
2019-03-16T22:14:22.194Z,6.80
2019-03-16T22:16:55.507Z,6.80
2019-03-16T22:19:37.239Z,6.83
2019-03-16T22:22:14.358Z,6.89
2019-03-16T22:24:45.244Z,6.86
2019-03-16T22:27:24.005Z,6.95
2019-03-16T22:29:54.788Z,6.91
2019-03-16T22:32:25.625Z,6.87
2019-03-16T22:34:57.322Z,6.84
2019-03-16T22:37:31.256Z,6.80
2019-03-16T22:40:03.942Z,6.79
2019-03-16T22:42:39.076Z,6.80
2019-03-16T22:45:13.159Z,6.81
2019-03-16T22:47:47.505Z,6.74
2019-03-16T22:50:18.624Z,6.78
2019-03-16T22:52:56.834Z,6.74
2019-03-16T22:55:28.167Z,6.76
2019-03-16T22:58:00.707Z,6.77
2019-03-16T23:00:47.597Z,6.79
2019-03-16T23:03:19.036Z,6.82
2019-03-16T23:05:50.570Z,6.83
2019-03-16T23:08:21.908Z,6.71
2019-03-16T23:10:52.860Z,6.71
2019-03-16T23:13:26.477Z,6.69
2019-03-16T23:15:57.845Z,6.62
2019-03-16T23:18:38.527Z,6.62
2019-03-16T23:21:12.411Z,6.65
2019-03-16T23:23:48.975Z,6.65
2019-03-16T23:26:20.210Z,6.62
2019-03-16T23:28:56.871Z,6.62
2019-03-16T23:31:28.036Z,6.55
2019-03-16T23:34:19.032Z,6.53
2019-03-16T23:36:41.944Z,6.51
2019-03-16T23:39:12.727Z,6.57
2019-03-16T23:41:43.991Z,6.58
2019-03-16T23:44:15.354Z,6.60
2019-03-16T23:46:51.302Z,6.60
2019-03-16T23:49:23.031Z,6.59
2019-03-16T23:51:56.341Z,6.54
2019-03-16T23:54:28.672Z,6.56
2019-03-16T23:56:59.531Z,6.46
2019-03-16T23:59:39.378Z,6.42
